createdAt,value
2022-12-25T00:01:06.758Z,5.50
2022-12-25T00:03:33.320Z,6.90
2022-12-25T00:05:59.878Z,6.43
2022-12-25T00:08:26.350Z,5.37
2022-12-25T00:11:00.772Z,5.32
2022-12-25T00:13:27.314Z,5.63
2022-12-25T00:15:54.056Z,5.38
2022-12-25T00:18:20.855Z,5.15
2022-12-25T00:20:59.673Z,5.10
2022-12-25T00:23:26.447Z,5.70
2022-12-25T00:25:53.811Z,4.88
2022-12-25T00:28:21.724Z,5.32
2022-12-25T00:30:48.403Z,5.47
2022-12-25T00:33:15.731Z,6.00
2022-12-25T00:35:42.942Z,5.45
2022-12-25T00:38:09.941Z,5.10
2022-12-25T00:40:43.974Z,5.28
2022-12-25T00:43:10.492Z,4.93
2022-12-25T00:45:37.113Z,4.93
2022-12-25T00:48:03.825Z,5.05
2022-12-25T00:50:30.238Z,5.07
2022-12-25T00:52:57.658Z,5.50
2022-12-25T00:55:24.134Z,4.63
2022-12-25T00:57:50.641Z,5.00
2022-12-25T01:00:17.241Z,5.32
2022-12-25T01:02:43.926Z,4.63
2022-12-25T01:05:10.453Z,5.60
2022-12-25T01:07:36.908Z,4.53
2022-12-25T01:10:22.065Z,4.37
2022-12-25T01:12:49.360Z,4.72
2022-12-25T01:15:16.083Z,5.50
2022-12-25T01:17:43.548Z,4.90
2022-12-25T01:20:12.427Z,4.68
2022-12-25T01:22:38.883Z,4.67
2022-12-25T01:25:07.069Z,4.72
2022-12-25T01:27:33.675Z,4.70
2022-12-25T01:30:00.144Z,5.40
2022-12-25T01:32:26.744Z,4.40
2022-12-25T01:34:56.203Z,4.10
2022-12-25T01:37:24.965Z,5.03
2022-12-25T01:39:51.594Z,5.40
2022-12-25T01:42:20.280Z,5.32
2022-12-25T01:44:46.630Z,4.40
2022-12-25T01:47:14.932Z,4.43
2022-12-25T01:49:44.320Z,4.97
2022-12-25T01:52:20.255Z,4.47
2022-12-25T01:55:00.396Z,4.22
2022-12-25T01:57:30.769Z,4.20
2022-12-25T01:59:59.159Z,4.63
2022-12-25T02:02:27.024Z,4.03
2022-12-25T02:05:30.753Z,4.93
2022-12-25T02:08:01.059Z,5.10
2022-12-25T02:10:27.760Z,5.40
2022-12-25T02:12:54.204Z,4.30
2022-12-25T02:15:25.456Z,3.63
2022-12-25T02:17:59.866Z,4.40
2022-12-25T02:20:50.719Z,4.53
2022-12-25T02:23:49.611Z,4.60
2022-12-25T02:26:28.183Z,4.03
2022-12-25T02:29:05.304Z,3.63
2022-12-25T02:31:55.363Z,4.72
2022-12-25T02:34:31.782Z,4.55
2022-12-25T02:37:06.098Z,4.55
2022-12-25T02:39:59.407Z,4.20
2022-12-25T02:42:52.512Z,5.35
2022-12-25T02:45:56.845Z,4.75
2022-12-25T02:48:45.468Z,4.63
2022-12-25T02:51:34.956Z,4.43
2022-12-25T02:54:24.834Z,4.50
2022-12-25T02:57:12.534Z,4.18
2022-12-25T03:00:02.340Z,4.40
2022-12-25T03:02:51.296Z,4.20
2022-12-25T03:05:42.354Z,4.43
2022-12-25T03:08:14.530Z,5.22
2022-12-25T03:11:03.625Z,4.75
2022-12-25T03:13:36.188Z,4.07
2022-12-25T03:16:21.376Z,4.43
2022-12-25T03:18:47.953Z,5.30
2022-12-25T03:21:33.029Z,4.55
2022-12-25T03:24:21.566Z,4.30
2022-12-25T03:26:57.290Z,4.45
2022-12-25T03:29:44.990Z,5.50
2022-12-25T03:32:22.761Z,5.13
2022-12-25T03:35:17.606Z,4.70
2022-12-25T03:38:16.312Z,4.20
2022-12-25T03:41:09.139Z,4.50
2022-12-25T03:43:57.196Z,4.45
2022-12-25T03:46:45.660Z,4.45
2022-12-25T03:49:40.446Z,4.50
2022-12-25T03:52:28.759Z,4.78
2022-12-25T03:55:15.510Z,4.45
2022-12-25T03:58:00.301Z,4.43
2022-12-25T04:00:45.227Z,4.60
2022-12-25T04:03:30.175Z,4.55
2022-12-25T04:06:15.099Z,4.53
2022-12-25T04:08:59.944Z,3.92
2022-12-25T04:11:44.735Z,4.70
2022-12-25T04:14:29.602Z,4.28
2022-12-25T04:17:18.871Z,4.27
2022-12-25T04:20:03.557Z,4.07
2022-12-25T04:22:48.299Z,4.65
2022-12-25T04:25:33.166Z,3.92
2022-12-25T04:28:22.035Z,3.75
2022-12-25T04:31:07.587Z,3.73
2022-12-25T04:33:52.622Z,4.10
2022-12-25T04:36:19.023Z,3.65
2022-12-25T04:38:45.495Z,4.18
2022-12-25T04:41:13.308Z,3.97
2022-12-25T04:43:39.999Z,4.20
2022-12-25T04:46:06.818Z,3.72
2022-12-25T04:48:35.716Z,3.70
2022-12-25T04:51:19.050Z,3.58
2022-12-25T04:53:46.929Z,3.92
2022-12-25T04:56:13.911Z,3.17
2022-12-25T04:58:40.459Z,3.42
2022-12-25T05:01:07.156Z,4.30
2022-12-25T05:03:34.276Z,3.75
2022-12-25T05:06:01.845Z,3.63
2022-12-25T05:08:29.997Z,3.25
2022-12-25T05:10:56.435Z,3.45
2022-12-25T05:13:23.041Z,3.60
2022-12-25T05:15:49.758Z,2.65
2022-12-25T05:18:16.278Z,2.78
2022-12-25T05:20:42.812Z,3.20
2022-12-25T05:23:11.738Z,2.80
2022-12-25T05:25:41.173Z,2.67
2022-12-25T05:28:07.939Z,3.15
2022-12-25T05:30:34.972Z,3.42
2022-12-25T05:33:02.303Z,3.28
2022-12-25T05:35:28.704Z,3.25
2022-12-25T05:37:55.146Z,2.70
2022-12-25T05:40:21.526Z,2.95
2022-12-25T05:42:47.973Z,3.40
2022-12-25T05:45:14.451Z,3.03
2022-12-25T05:47:40.849Z,3.28
2022-12-25T05:50:08.260Z,2.92
2022-12-25T05:52:35.155Z,2.88
2022-12-25T05:55:01.567Z,2.55
2022-12-25T05:57:29.284Z,2.53
2022-12-25T05:59:55.880Z,3.22
2022-12-25T06:02:22.980Z,2.97
2022-12-25T06:04:49.433Z,2.60
2022-12-25T06:07:15.891Z,2.65
2022-12-25T06:09:42.218Z,2.90
2022-12-25T06:12:09.402Z,2.40
2022-12-25T06:14:36.648Z,3.10
2022-12-25T06:17:03.289Z,2.42
2022-12-25T06:19:29.756Z,2.50
2022-12-25T06:21:56.324Z,2.65
2022-12-25T06:24:23.267Z,2.55
2022-12-25T06:26:50.034Z,1.98
2022-12-25T06:29:16.552Z,1.90
2022-12-25T06:31:43.097Z,2.55
2022-12-25T06:34:10.284Z,2.30
2022-12-25T06:36:38.653Z,2.03
2022-12-25T06:39:05.107Z,1.98
2022-12-25T06:41:31.520Z,2.42
2022-12-25T06:44:00.352Z,2.30
2022-12-25T06:46:29.078Z,1.90
2022-12-25T06:48:56.856Z,2.03
2022-12-25T06:51:28.599Z,1.83
2022-12-25T06:53:55.763Z,2.30
2022-12-25T06:56:25.135Z,2.60
2022-12-25T06:58:57.508Z,2.47
2022-12-25T07:01:28.945Z,2.00
2022-12-25T07:03:58.757Z,1.90
2022-12-25T07:06:25.624Z,2.50
2022-12-25T07:08:52.458Z,2.35
2022-12-25T07:11:18.939Z,1.88
2022-12-25T07:13:45.510Z,2.15
2022-12-25T07:16:12.718Z,2.60
2022-12-25T07:18:39.644Z,2.60
2022-12-25T07:21:12.091Z,1.80
2022-12-25T07:23:38.586Z,2.00
2022-12-25T07:26:05.549Z,2.00
2022-12-25T07:28:32.776Z,2.05
2022-12-25T07:31:04.930Z,1.75
2022-12-25T07:33:32.059Z,1.80
2022-12-25T07:35:58.536Z,2.60
2022-12-25T07:38:24.954Z,2.13
2022-12-25T07:40:51.887Z,1.65
2022-12-25T07:43:18.310Z,1.70
2022-12-25T07:45:44.943Z,1.90
2022-12-25T07:48:16.419Z,2.30
2022-12-25T07:50:43.381Z,2.55
2022-12-25T07:53:09.770Z,1.65
2022-12-25T07:55:36.197Z,2.70
2022-12-25T07:58:02.647Z,2.25
2022-12-25T08:00:32.715Z,2.10
2022-12-25T08:03:00.006Z,2.25
2022-12-25T08:05:26.758Z,1.88
2022-12-25T08:07:57.732Z,2.33
2022-12-25T08:10:24.675Z,2.20
2022-12-25T08:12:51.988Z,1.85
2022-12-25T08:15:18.458Z,1.95
2022-12-25T08:17:45.141Z,1.67
2022-12-25T08:20:11.920Z,2.20
2022-12-25T08:22:38.338Z,1.83
2022-12-25T08:25:05.199Z,2.20
2022-12-25T08:27:49.923Z,1.77
2022-12-25T08:30:16.467Z,1.98
2022-12-25T08:32:42.898Z,2.63
2022-12-25T08:35:09.460Z,2.30
2022-12-25T08:37:35.848Z,1.93
2022-12-25T08:40:02.282Z,2.00
2022-12-25T08:42:28.690Z,1.98
2022-12-25T08:44:55.075Z,2.35
2022-12-25T08:47:21.444Z,2.22
2022-12-25T08:49:47.851Z,2.15
2022-12-25T08:52:15.382Z,1.70
2022-12-25T08:54:41.869Z,2.30
2022-12-25T08:57:08.297Z,2.00
2022-12-25T08:59:34.756Z,2.25
2022-12-25T09:02:01.233Z,1.80
2022-12-25T09:04:27.789Z,2.08
2022-12-25T09:06:54.265Z,1.63
2022-12-25T09:09:20.638Z,2.20
2022-12-25T09:11:49.031Z,1.20
2022-12-25T09:14:15.436Z,1.98
2022-12-25T09:16:41.947Z,2.05
2022-12-25T09:19:08.378Z,1.83
2022-12-25T09:21:36.715Z,1.90
2022-12-25T09:24:04.480Z,2.25
2022-12-25T09:26:30.938Z,1.60
2022-12-25T09:28:57.416Z,2.55
2022-12-25T09:31:23.989Z,1.63
2022-12-25T09:33:51.671Z,2.08
2022-12-25T09:36:18.318Z,2.13
2022-12-25T09:38:44.780Z,1.40
2022-12-25T09:41:32.531Z,1.75
2022-12-25T09:44:07.761Z,2.00
2022-12-25T09:46:55.855Z,2.28
2022-12-25T09:49:48.359Z,1.50
2022-12-25T09:52:19.877Z,1.77
2022-12-25T09:54:49.193Z,1.58
2022-12-25T09:57:16.039Z,1.75
2022-12-25T09:59:44.166Z,1.95
2022-12-25T10:02:29.326Z,1.95
2022-12-25T10:04:58.856Z,2.00
2022-12-25T10:07:55.065Z,1.92
2022-12-25T10:10:36.518Z,1.98
2022-12-25T10:13:26.795Z,1.88
2022-12-25T10:16:23.805Z,1.85
2022-12-25T10:19:13.280Z,1.67
2022-12-25T10:21:40.899Z,1.67
2022-12-25T10:24:39.477Z,2.00
2022-12-25T10:27:15.214Z,2.03
2022-12-25T10:29:43.613Z,2.30
2022-12-25T10:32:10.341Z,1.90
2022-12-25T10:34:41.158Z,1.80
2022-12-25T10:37:11.547Z,1.70
2022-12-25T10:39:45.878Z,2.20
2022-12-25T10:42:28.510Z,1.77
2022-12-25T10:44:56.627Z,1.93
2022-12-25T10:47:25.757Z,1.80
2022-12-25T10:49:52.839Z,2.05
2022-12-25T10:52:28.300Z,2.33
2022-12-25T10:54:55.593Z,2.17
2022-12-25T10:57:24.258Z,2.03
2022-12-25T10:59:55.925Z,1.95
2022-12-25T11:02:29.877Z,2.50
2022-12-25T11:05:25.105Z,3.00
2022-12-25T11:07:54.718Z,2.60
2022-12-25T11:10:24.912Z,1.83
2022-12-25T11:12:52.907Z,2.40
2022-12-25T11:15:36.648Z,2.90
2022-12-25T11:18:18.014Z,5.40
2022-12-25T11:20:55.914Z,6.93
2022-12-25T11:23:24.550Z,4.60
2022-12-25T11:26:01.547Z,3.22
2022-12-25T11:28:30.287Z,2.45
2022-12-25T11:31:08.462Z,2.33
2022-12-25T11:33:41.762Z,2.90
2022-12-25T11:36:48.549Z,2.53
2022-12-25T11:39:28.413Z,2.60
2022-12-25T11:42:07.092Z,2.58
2022-12-25T11:44:43.818Z,2.92
2022-12-25T11:47:35.684Z,2.97
2022-12-25T11:50:20.376Z,3.00
2022-12-25T11:52:48.145Z,2.15
2022-12-25T11:55:26.738Z,2.40
2022-12-25T11:57:57.801Z,2.25
2022-12-25T12:00:24.773Z,2.42
2022-12-25T12:02:58.801Z,2.23
2022-12-25T12:05:43.134Z,2.88
2022-12-25T12:08:10.675Z,2.30
2022-12-25T12:11:17.784Z,2.67
2022-12-25T12:14:05.342Z,2.97
2022-12-25T12:16:32.114Z,2.88
2022-12-25T12:18:58.581Z,2.92
2022-12-25T12:21:28.516Z,2.70
2022-12-25T12:24:01.374Z,2.95
2022-12-25T12:26:30.804Z,3.25
2022-12-25T12:29:03.520Z,2.72
2022-12-25T12:31:43.461Z,3.47
2022-12-25T12:34:26.915Z,3.05
2022-12-25T12:37:01.040Z,2.97
2022-12-25T12:39:35.211Z,3.35
2022-12-25T12:42:02.292Z,3.28
2022-12-25T12:44:33.700Z,3.50
2022-12-25T12:47:00.117Z,3.05
2022-12-25T12:49:29.355Z,3.15
2022-12-25T12:52:20.451Z,3.60
2022-12-25T12:54:59.440Z,3.45
2022-12-25T12:57:29.864Z,3.25
2022-12-25T12:59:59.960Z,3.80
2022-12-25T13:03:23.290Z,3.88
2022-12-25T13:05:56.192Z,5.07
2022-12-25T13:08:35.930Z,3.72
2022-12-25T13:11:10.479Z,3.40
2022-12-25T13:13:40.916Z,3.70
2022-12-25T13:16:23.141Z,3.45
2022-12-25T13:18:52.113Z,4.10
2022-12-25T13:21:23.523Z,3.67
2022-12-25T13:23:56.435Z,4.07
2022-12-25T13:26:25.723Z,3.65
2022-12-25T13:28:52.225Z,4.72
2022-12-25T13:31:21.725Z,3.70
2022-12-25T13:34:06.786Z,4.40
2022-12-25T13:36:40.057Z,4.15
2022-12-25T13:39:16.394Z,4.38
2022-12-25T13:42:05.276Z,4.45
2022-12-25T13:44:53.925Z,4.20
2022-12-25T13:47:39.456Z,4.23
2022-12-25T13:50:25.220Z,4.10
2022-12-25T13:52:52.721Z,3.70
2022-12-25T13:55:22.081Z,4.25
2022-12-25T13:57:55.339Z,4.22
2022-12-25T14:00:48.460Z,3.77
2022-12-25T14:03:27.843Z,3.67
2022-12-25T14:05:59.154Z,4.15
2022-12-25T14:08:28.725Z,4.63
2022-12-25T14:10:56.768Z,4.05
2022-12-25T14:13:27.728Z,4.03
2022-12-25T14:15:56.491Z,4.47
2022-12-25T14:18:24.774Z,4.55
2022-12-25T14:21:02.403Z,5.80
2022-12-25T14:23:42.760Z,5.25
2022-12-25T14:26:30.408Z,4.93
2022-12-25T14:29:05.786Z,5.47
2022-12-25T14:31:33.118Z,4.60
2022-12-25T14:34:01.913Z,5.13
2022-12-25T14:36:30.862Z,4.32
2022-12-25T14:39:03.624Z,5.45
2022-12-25T14:41:38.412Z,4.45
2022-12-25T14:44:26.553Z,5.25
2022-12-25T14:47:13.796Z,5.03
2022-12-25T14:49:40.941Z,5.00
2022-12-25T14:52:29.835Z,5.57
2022-12-25T14:55:12.013Z,5.18
2022-12-25T14:57:40.544Z,5.95
2022-12-25T15:00:24.500Z,5.90
2022-12-25T15:02:54.675Z,5.45
2022-12-25T15:05:28.928Z,5.00
2022-12-25T15:08:03.151Z,4.60
2022-12-25T15:13:20.043Z,4.78
2022-12-25T15:15:51.840Z,4.93
2022-12-25T15:18:20.348Z,5.40
2022-12-25T15:20:46.863Z,5.70
2022-12-25T15:23:20.219Z,4.82
2022-12-25T15:25:47.560Z,5.10
2022-12-25T15:28:14.309Z,5.18
2022-12-25T15:30:40.931Z,4.83
2022-12-25T15:33:09.172Z,5.47
2022-12-25T15:35:38.397Z,6.40
2022-12-25T15:38:05.433Z,5.82
2022-12-25T15:40:31.911Z,5.80
2022-12-25T15:42:58.341Z,5.30
2022-12-25T15:45:27.998Z,5.65
2022-12-25T15:47:54.523Z,5.75
2022-12-25T15:50:21.238Z,5.85
2022-12-25T15:52:48.453Z,5.90
2022-12-25T15:55:15.525Z,5.93
2022-12-25T15:57:44.208Z,5.38
2022-12-25T16:00:16.624Z,5.70
2022-12-25T16:02:43.421Z,5.57
2022-12-25T16:05:10.772Z,6.90
2022-12-25T16:07:37.521Z,5.75
2022-12-25T16:10:07.494Z,6.05
2022-12-25T16:12:33.924Z,6.22
2022-12-25T16:15:00.358Z,7.28
2022-12-25T16:17:26.811Z,6.38
2022-12-25T16:19:53.384Z,6.13
2022-12-25T16:22:25.880Z,5.85
2022-12-25T16:24:52.855Z,5.32
2022-12-25T16:27:19.603Z,5.78
2022-12-25T16:29:46.085Z,5.25
2022-12-25T16:32:13.800Z,6.20
2022-12-25T16:34:40.781Z,5.97
2022-12-25T16:37:07.615Z,5.75
2022-12-25T16:39:34.027Z,5.28
2022-12-25T16:42:00.693Z,6.22
2022-12-25T16:44:27.083Z,6.20
2022-12-25T16:46:53.602Z,5.38
2022-12-25T16:49:20.108Z,6.13
2022-12-25T16:51:46.453Z,5.80
2022-12-25T16:54:12.810Z,7.15
2022-12-25T16:56:39.218Z,5.78
2022-12-25T16:59:05.641Z,6.28
2022-12-25T17:01:32.171Z,5.53
2022-12-25T17:04:01.421Z,5.32
2022-12-25T17:06:28.705Z,5.90
2022-12-25T17:09:00.216Z,5.85
2022-12-25T17:11:30.215Z,5.95
2022-12-25T17:14:02.567Z,5.90
2022-12-25T17:16:31.975Z,6.03
2022-12-25T17:19:08.151Z,5.70
2022-12-25T17:21:35.437Z,6.30
2022-12-25T17:24:04.041Z,5.72
2022-12-25T17:26:32.132Z,6.55
2022-12-25T17:28:58.612Z,7.22
2022-12-25T17:31:25.160Z,6.35
2022-12-25T17:33:51.596Z,6.43
2022-12-25T17:36:20.354Z,6.60
2022-12-25T17:38:47.648Z,5.93
2022-12-25T17:41:16.827Z,7.57
2022-12-25T17:43:45.557Z,7.57
2022-12-25T17:46:18.727Z,7.20
2022-12-25T17:48:45.737Z,8.98
2022-12-25T17:51:16.250Z,9.02
2022-12-25T17:53:47.125Z,9.93
2022-12-25T17:56:14.381Z,9.10
2022-12-25T17:58:40.950Z,10.80
2022-12-25T18:01:15.848Z,11.80
2022-12-25T18:03:43.729Z,11.98
2022-12-25T18:06:15.536Z,9.57
2022-12-25T18:08:43.394Z,8.10
2022-12-25T18:11:16.271Z,8.18
2022-12-25T18:13:45.015Z,7.43
2022-12-25T18:16:13.127Z,7.13
2022-12-25T18:18:40.201Z,7.45
2022-12-25T18:21:07.430Z,8.90
2022-12-25T18:23:34.120Z,7.70
2022-12-25T18:26:02.587Z,8.00
2022-12-25T18:28:29.242Z,9.02
2022-12-25T18:30:55.703Z,9.77
2022-12-25T18:33:22.173Z,7.77
2022-12-25T18:35:48.798Z,7.63
2022-12-25T18:38:16.828Z,7.13
2022-12-25T18:40:45.244Z,7.05
2022-12-25T18:43:12.663Z,6.88
2022-12-25T18:45:39.464Z,6.45
2022-12-25T18:48:06.465Z,6.68
2022-12-25T18:50:34.890Z,7.13
2022-12-25T18:53:01.804Z,7.22
2022-12-25T18:55:28.616Z,6.35
2022-12-25T18:57:55.783Z,6.53
2022-12-25T19:00:22.971Z,7.10
2022-12-25T19:02:49.963Z,6.82
2022-12-25T19:05:16.846Z,7.72
2022-12-25T19:07:43.291Z,7.53
2022-12-25T19:10:10.465Z,8.10
2022-12-25T19:12:37.005Z,8.38
2022-12-25T19:15:03.672Z,8.82
2022-12-25T19:17:32.154Z,8.75
2022-12-25T19:19:58.972Z,8.15
2022-12-25T19:22:25.386Z,8.95
2022-12-25T19:24:51.833Z,8.43
2022-12-25T19:27:18.211Z,7.88
2022-12-25T19:29:44.673Z,8.13
2022-12-25T19:32:11.148Z,7.45
2022-12-25T19:34:37.801Z,7.38
2022-12-25T19:37:04.227Z,7.03
2022-12-25T19:39:30.743Z,8.05
2022-12-25T19:41:57.381Z,8.15
2022-12-25T19:44:23.837Z,8.07
2022-12-25T19:46:50.335Z,8.68
2022-12-25T19:49:16.861Z,9.57
2022-12-25T19:51:45.860Z,9.57
2022-12-25T19:54:18.791Z,9.02
2022-12-25T19:56:45.510Z,8.95
2022-12-25T19:59:13.109Z,8.27
2022-12-25T20:01:39.666Z,8.05
2022-12-25T20:04:08.704Z,8.23
2022-12-25T20:06:38.160Z,7.93
2022-12-25T20:09:12.582Z,8.45
2022-12-25T20:11:40.707Z,8.25
2022-12-25T20:14:08.305Z,8.25
2022-12-25T20:16:37.526Z,8.20
2022-12-25T20:19:05.063Z,8.23
2022-12-25T20:21:31.546Z,7.45
2022-12-25T20:23:58.153Z,7.30
2022-12-25T20:26:30.093Z,6.88
2022-12-25T20:28:56.732Z,7.20
2022-12-25T20:31:29.105Z,6.68
2022-12-25T20:33:57.618Z,6.68
2022-12-25T20:36:24.649Z,6.53
2022-12-25T20:38:51.744Z,6.55
2022-12-25T20:41:29.475Z,6.03
2022-12-25T20:43:56.752Z,5.57
2022-12-25T20:46:24.140Z,5.72
2022-12-25T20:48:51.918Z,5.70
2022-12-25T20:51:20.746Z,6.28
2022-12-25T20:53:48.313Z,5.50
2022-12-25T20:56:17.035Z,6.03
2022-12-25T20:58:43.464Z,5.68
2022-12-25T21:01:15.591Z,5.97
2022-12-25T21:03:42.842Z,5.93
2022-12-25T21:06:09.981Z,5.95
2022-12-25T21:08:36.669Z,7.05
2022-12-25T21:11:04.468Z,6.88
2022-12-25T21:13:35.596Z,6.30
2022-12-25T21:16:05.771Z,16.20
2022-12-25T21:18:32.289Z,17.92
2022-12-25T21:20:59.470Z,8.50
2022-12-25T21:23:26.718Z,7.53
2022-12-25T21:25:53.770Z,7.32
2022-12-25T21:28:20.651Z,8.57
2022-12-25T21:30:47.231Z,8.43
2022-12-25T21:33:32.890Z,6.97
2022-12-25T21:36:10.091Z,7.55
2022-12-25T21:38:37.949Z,7.00
2022-12-25T21:41:10.184Z,8.20
2022-12-25T21:43:38.755Z,6.60
2022-12-25T21:46:07.845Z,6.93
2022-12-25T21:48:36.130Z,7.10
2022-12-25T21:51:25.458Z,7.13
2022-12-25T21:53:51.919Z,7.10
2022-12-25T21:56:18.391Z,6.65
2022-12-25T21:58:44.867Z,7.10
2022-12-25T22:01:11.791Z,6.97
2022-12-25T22:03:38.381Z,7.00
2022-12-25T22:06:23.659Z,7.37
2022-12-25T22:08:50.077Z,7.05
2022-12-25T22:11:35.242Z,8.45
2022-12-25T22:14:20.096Z,6.97
2022-12-25T22:17:25.221Z,7.45
2022-12-25T22:19:51.850Z,7.73
2022-12-25T22:22:25.261Z,7.53
2022-12-25T22:24:54.472Z,6.93
2022-12-25T22:27:21.874Z,7.10
2022-12-25T22:29:48.433Z,6.35
2022-12-25T22:32:16.112Z,7.10
2022-12-25T22:34:42.923Z,6.55
2022-12-25T22:37:14.350Z,5.90
2022-12-25T22:39:40.955Z,5.93
2022-12-25T22:42:07.419Z,7.35
2022-12-25T22:44:33.885Z,6.27
2022-12-25T22:47:00.334Z,6.78
2022-12-25T22:49:27.332Z,6.13
2022-12-25T22:51:54.447Z,5.57
2022-12-25T22:54:24.077Z,5.35
2022-12-25T22:56:52.529Z,5.00
2022-12-25T22:59:20.933Z,5.43
2022-12-25T23:01:47.678Z,5.32
2022-12-25T23:04:14.154Z,6.07
2022-12-25T23:06:41.004Z,5.55
2022-12-25T23:09:09.024Z,5.10
2022-12-25T23:11:36.436Z,5.70
2022-12-25T23:14:21.412Z,5.05
2022-12-25T23:16:47.857Z,4.55
2022-12-25T23:19:33.413Z,4.45
2022-12-25T23:22:18.843Z,4.90
2022-12-25T23:25:04.005Z,4.68
2022-12-25T23:27:30.437Z,5.00
2022-12-25T23:29:56.889Z,4.93
2022-12-25T23:32:25.273Z,4.53
2022-12-25T23:34:52.339Z,5.53
2022-12-25T23:37:19.369Z,5.20
2022-12-25T23:39:46.191Z,4.40
2022-12-25T23:42:12.641Z,4.75
2022-12-25T23:44:39.070Z,5.28
2022-12-25T23:47:05.568Z,4.88
2022-12-25T23:49:32.148Z,5.10
2022-12-25T23:51:58.733Z,5.43
2022-12-25T23:54:28.509Z,4.60
2022-12-25T23:56:57.509Z,4.85
2022-12-25T23:59:25.826Z,5.73
